createdAt,value
2023-04-20T00:00:31.677Z,12.76
2023-04-20T00:02:59.334Z,12.76
2023-04-20T00:05:27.571Z,12.72
2023-04-20T00:07:55.141Z,12.69
2023-04-20T00:10:22.300Z,12.66
2023-04-20T00:12:50.196Z,12.63
2023-04-20T00:15:17.398Z,12.64
2023-04-20T00:17:44.939Z,12.67
2023-04-20T00:20:13.039Z,12.68
2023-04-20T00:22:40.292Z,12.72
2023-04-20T00:25:07.852Z,12.75
2023-04-20T00:27:35.913Z,12.80
2023-04-20T00:30:03.471Z,12.85
2023-04-20T00:32:30.776Z,12.91
2023-04-20T00:34:58.482Z,12.94
2023-04-20T00:37:26.393Z,12.96
2023-04-20T00:39:53.611Z,12.98
2023-04-20T00:42:21.340Z,12.99
2023-04-20T00:44:49.191Z,13.00
2023-04-20T00:47:16.683Z,13.00
2023-04-20T00:49:44.480Z,12.98
2023-04-20T00:52:12.138Z,12.96
2023-04-20T00:54:39.809Z,12.95
2023-04-20T00:57:07.027Z,12.96
2023-04-20T00:59:34.261Z,12.96
2023-04-20T01:04:57.860Z,12.75
2023-04-20T01:07:25.067Z,11.97
2023-04-20T01:09:52.446Z,11.24
2023-04-20T01:12:19.991Z,10.67
2023-04-20T01:14:47.165Z,10.39
2023-04-20T01:17:15.473Z,10.78
2023-04-20T01:19:45.588Z,11.16
2023-04-20T01:22:22.331Z,11.41
2023-04-20T01:24:49.642Z,11.55
2023-04-20T01:27:17.645Z,11.64
2023-04-20T01:29:45.857Z,11.70
2023-04-20T01:32:13.800Z,11.77
2023-04-20T01:34:41.567Z,11.85
2023-04-20T01:37:08.875Z,11.93
2023-04-20T01:39:40.873Z,12.00
2023-04-20T01:42:08.182Z,12.07
2023-04-20T01:44:35.476Z,12.12
2023-04-20T01:47:03.594Z,12.14
2023-04-20T01:49:30.897Z,12.10
2023-04-20T01:51:58.160Z,12.10
2023-04-20T01:54:25.310Z,12.10
2023-04-20T01:56:52.595Z,12.10
2023-04-20T01:59:19.950Z,12.08
2023-04-20T02:01:48.757Z,12.08
2023-04-20T02:04:16.010Z,12.10
2023-04-20T02:06:43.186Z,12.15
2023-04-20T02:09:11.305Z,12.21
2023-04-20T02:11:38.599Z,12.25
2023-04-20T02:14:06.025Z,12.30
2023-04-20T02:16:33.937Z,12.33
2023-04-20T02:19:01.628Z,12.35
2023-04-20T02:21:29.258Z,12.40
2023-04-20T02:23:57.535Z,12.44
2023-04-20T02:26:24.972Z,12.50
2023-04-20T02:28:52.176Z,12.55
2023-04-20T02:31:19.829Z,12.59
2023-04-20T02:33:48.217Z,12.64
2023-04-20T02:36:16.275Z,12.67
2023-04-20T02:38:43.890Z,12.69
2023-04-20T02:41:10.992Z,12.72
2023-04-20T02:43:38.361Z,12.73
2023-04-20T02:46:08.930Z,12.74
2023-04-20T02:48:36.218Z,12.72
2023-04-20T02:51:03.677Z,12.68
2023-04-20T02:53:31.035Z,12.63
2023-04-20T02:55:58.193Z,12.59
2023-04-20T02:58:25.942Z,12.55
2023-04-20T03:00:53.312Z,12.51
2023-04-20T03:03:21.830Z,12.49
2023-04-20T03:05:50.756Z,12.43
2023-04-20T03:08:18.185Z,12.36
2023-04-20T03:10:45.383Z,12.31
2023-04-20T03:13:13.955Z,12.28
2023-04-20T03:15:41.406Z,12.27
2023-04-20T03:18:08.877Z,12.27
2023-04-20T03:20:36.603Z,12.29
2023-04-20T03:23:04.266Z,12.33
2023-04-20T03:25:31.773Z,12.38
2023-04-20T03:28:00.041Z,12.41
2023-04-20T03:30:27.572Z,12.43
2023-04-20T03:32:54.933Z,12.46
2023-04-20T03:35:22.454Z,12.50
2023-04-20T03:37:49.755Z,12.54
2023-04-20T03:40:16.988Z,12.57
2023-04-20T03:42:44.447Z,12.60
2023-04-20T03:45:12.492Z,12.64
2023-04-20T03:47:39.768Z,12.71
2023-04-20T03:50:07.548Z,12.77
2023-04-20T03:52:34.810Z,12.83
2023-04-20T03:55:02.311Z,12.89
2023-04-20T03:57:29.495Z,12.95
2023-04-20T03:59:56.745Z,13.00
2023-04-20T04:02:24.079Z,13.05
2023-04-20T04:04:51.858Z,13.09
2023-04-20T04:07:19.333Z,13.12
2023-04-20T04:09:46.618Z,13.13
2023-04-20T04:12:14.337Z,13.15
2023-04-20T04:14:41.935Z,13.15
2023-04-20T04:17:09.279Z,13.16
2023-04-20T04:19:36.541Z,13.19
2023-04-20T04:22:03.859Z,13.21
2023-04-20T04:24:32.130Z,13.24
2023-04-20T04:26:59.864Z,13.28
2023-04-20T04:29:27.548Z,13.30
2023-04-20T04:31:54.879Z,13.32
2023-04-20T04:34:24.445Z,13.33
2023-04-20T04:36:51.694Z,13.31
2023-04-20T04:39:19.017Z,13.29
2023-04-20T04:41:46.724Z,13.26
2023-04-20T04:44:13.980Z,13.18
2023-04-20T04:46:41.399Z,13.20
2023-04-20T04:49:10.060Z,13.23
2023-04-20T04:51:37.388Z,13.27
2023-04-20T04:54:05.264Z,13.28
2023-04-20T04:56:32.481Z,13.29
2023-04-20T04:58:59.964Z,13.31
2023-04-20T05:01:27.267Z,13.36
2023-04-20T05:03:54.770Z,13.39
2023-04-20T05:06:22.657Z,13.41
2023-04-20T05:08:50.186Z,13.40
2023-04-20T05:11:17.392Z,13.42
2023-04-20T05:13:44.984Z,13.44
2023-04-20T05:16:12.820Z,13.44
2023-04-20T05:18:40.059Z,13.43
2023-04-20T05:21:07.698Z,13.44
2023-04-20T05:23:35.100Z,13.47
2023-04-20T05:26:02.332Z,13.46
2023-04-20T05:28:29.902Z,13.46
2023-04-20T05:30:57.539Z,13.45
2023-04-20T05:33:25.667Z,13.46
2023-04-20T05:35:58.159Z,13.44
2023-04-20T05:38:26.022Z,13.41
2023-04-20T05:40:53.803Z,13.40
2023-04-20T05:43:21.436Z,13.43
2023-04-20T05:45:49.775Z,13.45
2023-04-20T05:48:17.365Z,13.46
2023-04-20T05:50:44.564Z,13.47
2023-04-20T05:53:11.712Z,13.48
2023-04-20T05:55:39.236Z,13.53
2023-04-20T05:58:07.188Z,13.57
2023-04-20T06:00:34.615Z,13.63
2023-04-20T06:03:02.612Z,13.67
2023-04-20T06:05:30.605Z,13.71
2023-04-20T06:07:57.880Z,13.74
2023-04-20T06:10:25.605Z,13.74
2023-04-20T06:12:53.252Z,13.74
2023-04-20T06:15:20.639Z,13.73
2023-04-20T06:17:48.502Z,13.76
2023-04-20T06:20:16.528Z,13.78
2023-04-20T06:22:45.941Z,13.82
2023-04-20T06:25:14.226Z,13.87
2023-04-20T06:27:43.313Z,13.92
2023-04-20T06:30:11.390Z,13.97
2023-04-20T06:32:39.104Z,14.01
2023-04-20T06:35:08.310Z,14.07
2023-04-20T06:37:37.132Z,14.12
2023-04-20T06:40:08.691Z,14.19
2023-04-20T06:42:37.359Z,14.27
2023-04-20T06:45:06.904Z,14.34
2023-04-20T06:47:35.054Z,14.44
2023-04-20T06:50:05.641Z,14.54
2023-04-20T06:52:32.946Z,14.62
2023-04-20T06:55:00.841Z,14.68
2023-04-20T06:57:28.648Z,14.73
2023-04-20T06:59:55.743Z,14.81
2023-04-20T07:02:23.193Z,14.88
2023-04-20T07:04:51.373Z,14.92
2023-04-20T07:07:18.729Z,14.94
2023-04-20T07:09:45.979Z,14.97
2023-04-20T07:12:16.817Z,15.01
2023-04-20T07:14:44.030Z,15.07
2023-04-20T07:17:11.204Z,15.04
2023-04-20T07:19:40.382Z,14.50
2023-04-20T07:22:07.931Z,13.88
2023-04-20T07:24:35.255Z,13.58
2023-04-20T07:27:03.950Z,13.94
2023-04-20T07:29:32.839Z,14.36
2023-04-20T07:32:01.188Z,14.66
2023-04-20T07:34:28.816Z,14.83
2023-04-20T07:36:56.059Z,14.96
2023-04-20T07:39:25.689Z,15.09
2023-04-20T07:41:53.473Z,15.18
2023-04-20T07:44:21.285Z,14.97
2023-04-20T07:46:49.960Z,14.36
2023-04-20T07:49:17.582Z,13.86
2023-04-20T07:51:45.855Z,13.66
2023-04-20T07:54:13.056Z,14.05
2023-04-20T07:56:40.771Z,14.49
2023-04-20T07:59:09.186Z,14.81
2023-04-20T08:01:37.476Z,15.00
2023-04-20T08:04:05.475Z,15.16
2023-04-20T08:06:33.747Z,15.16
2023-04-20T08:09:01.216Z,15.30
2023-04-20T08:11:28.994Z,14.91
2023-04-20T08:13:58.425Z,14.39
2023-04-20T08:16:26.034Z,14.18
2023-04-20T08:18:53.590Z,14.58
2023-04-20T08:21:25.305Z,15.03
2023-04-20T08:23:53.466Z,15.43
2023-04-20T08:26:21.559Z,15.77
2023-04-20T08:28:49.328Z,15.51
2023-04-20T08:31:16.587Z,14.98
2023-04-20T08:33:44.234Z,14.62
2023-04-20T08:36:12.536Z,14.40
2023-04-20T08:38:39.918Z,14.42
2023-04-20T08:41:07.619Z,15.01
2023-04-20T08:43:35.000Z,15.56
2023-04-20T08:46:03.401Z,15.99
2023-04-20T08:48:36.834Z,16.17
2023-04-20T08:51:05.140Z,15.79
2023-04-20T08:53:33.389Z,15.47
2023-04-20T08:56:01.160Z,15.20
2023-04-20T08:58:33.167Z,14.98
2023-04-20T09:01:02.215Z,14.77
2023-04-20T09:03:42.102Z,14.59
2023-04-20T09:06:18.550Z,14.49
2023-04-20T09:08:47.131Z,14.73
2023-04-20T09:11:25.900Z,15.46
2023-04-20T09:14:10.437Z,16.07
2023-04-20T09:16:40.573Z,15.97
2023-04-20T09:19:09.307Z,15.59
2023-04-20T09:21:37.155Z,15.36
2023-04-20T09:24:10.303Z,15.18
2023-04-20T09:26:37.551Z,15.01
2023-04-20T09:29:05.883Z,14.85
2023-04-20T09:31:37.343Z,14.74
2023-04-20T09:34:04.907Z,14.66
2023-04-20T09:36:41.669Z,14.81
2023-04-20T09:39:11.914Z,15.39
2023-04-20T09:41:41.577Z,15.88
2023-04-20T09:44:10.417Z,16.04
2023-04-20T09:46:39.890Z,15.65
2023-04-20T09:49:09.070Z,15.24
2023-04-20T09:51:39.127Z,14.92
2023-04-20T09:54:07.285Z,14.69
2023-04-20T09:56:36.327Z,14.55
2023-04-20T09:59:08.014Z,14.70
2023-04-20T10:01:38.956Z,15.24
2023-04-20T10:04:11.632Z,15.63
2023-04-20T10:06:39.372Z,15.66
2023-04-20T10:09:09.455Z,15.26
2023-04-20T10:11:51.678Z,14.87
2023-04-20T10:14:22.098Z,14.58
2023-04-20T10:17:11.918Z,14.51
2023-04-20T10:19:41.962Z,15.03
2023-04-20T10:22:11.255Z,15.49
2023-04-20T10:24:38.921Z,15.86
2023-04-20T10:27:23.196Z,15.96
2023-04-20T10:29:50.535Z,15.54
2023-04-20T10:32:29.784Z,15.16
2023-04-20T10:35:10.700Z,14.86
2023-04-20T10:37:52.682Z,14.85
2023-04-20T10:40:28.115Z,15.36
2023-04-20T10:42:56.034Z,15.79
2023-04-20T10:45:37.532Z,16.10
2023-04-20T10:48:12.036Z,16.20
2023-04-20T10:50:40.169Z,15.73
2023-04-20T10:53:18.866Z,15.26
2023-04-20T10:55:46.566Z,14.91
2023-04-20T10:58:25.096Z,14.83
2023-04-20T11:01:03.495Z,15.28
2023-04-20T11:03:33.249Z,15.71
2023-04-20T11:06:02.107Z,15.99
2023-04-20T11:08:42.824Z,16.06
2023-04-20T11:11:30.274Z,15.63
2023-04-20T11:14:09.167Z,15.18
2023-04-20T11:16:49.544Z,14.88
2023-04-20T11:19:33.913Z,14.87
2023-04-20T11:22:02.934Z,15.45
2023-04-20T11:24:32.205Z,15.89
2023-04-20T11:27:02.534Z,16.22
2023-04-20T11:29:34.603Z,16.28
2023-04-20T11:32:07.066Z,15.88
2023-04-20T11:34:35.766Z,15.51
2023-04-20T11:37:08.394Z,15.24
2023-04-20T11:39:36.130Z,15.02
2023-04-20T11:42:04.841Z,15.06
2023-04-20T11:44:32.494Z,15.58
2023-04-20T11:47:00.852Z,16.04
2023-04-20T11:49:29.571Z,16.12
2023-04-20T11:51:56.979Z,15.81
2023-04-20T11:54:24.600Z,15.53
2023-04-20T11:56:53.785Z,15.37
2023-04-20T11:59:21.836Z,15.26
2023-04-20T12:01:49.339Z,15.22
2023-04-20T12:04:17.312Z,15.20
2023-04-20T12:06:45.783Z,15.15
2023-04-20T12:09:14.023Z,15.08
2023-04-20T12:11:41.748Z,14.96
2023-04-20T12:14:10.334Z,14.90
2023-04-20T12:16:37.599Z,14.81
2023-04-20T12:19:05.100Z,14.73
2023-04-20T12:21:33.236Z,14.70
2023-04-20T12:24:00.809Z,14.66
2023-04-20T12:26:37.396Z,14.67
2023-04-20T12:29:06.052Z,14.61
2023-04-20T12:31:33.496Z,14.62
2023-04-20T12:34:00.720Z,14.67
2023-04-20T12:36:28.950Z,14.72
2023-04-20T12:38:56.463Z,14.76
2023-04-20T12:41:24.894Z,14.82
2023-04-20T12:43:52.740Z,14.90
2023-04-20T12:46:20.211Z,15.02
2023-04-20T12:48:47.586Z,15.12
2023-04-20T12:51:15.861Z,15.17
2023-04-20T12:53:43.043Z,15.22
2023-04-20T12:56:10.395Z,15.27
2023-04-20T12:58:38.551Z,15.45
2023-04-20T13:01:05.980Z,15.62
2023-04-20T13:03:33.397Z,15.72
2023-04-20T13:06:02.545Z,15.85
2023-04-20T13:08:30.568Z,16.03
2023-04-20T13:10:57.839Z,16.25
2023-04-20T13:13:29.752Z,16.30
2023-04-20T13:15:57.470Z,16.29
2023-04-20T13:18:25.114Z,16.28
2023-04-20T13:20:52.962Z,16.17
2023-04-20T13:23:20.725Z,16.03
2023-04-20T13:25:48.212Z,15.96
2023-04-20T13:28:16.136Z,15.95
2023-04-20T13:30:44.150Z,15.98
2023-04-20T13:33:12.592Z,16.11
2023-04-20T13:35:41.294Z,16.26
2023-04-20T13:38:10.350Z,16.38
2023-04-20T13:40:37.801Z,16.41
2023-04-20T13:43:05.204Z,16.35
2023-04-20T13:45:33.346Z,16.23
2023-04-20T13:48:02.196Z,16.10
2023-04-20T13:50:31.542Z,16.01
2023-04-20T13:52:58.899Z,15.88
2023-04-20T13:55:27.214Z,15.75
2023-04-20T13:57:54.961Z,15.65
2023-04-20T14:00:23.956Z,15.57
2023-04-20T14:02:51.533Z,15.52
2023-04-20T14:05:19.019Z,15.44
2023-04-20T14:07:46.878Z,15.42
2023-04-20T14:10:14.384Z,15.35
2023-04-20T14:12:42.731Z,15.34
2023-04-20T14:15:10.664Z,15.34
2023-04-20T14:17:38.140Z,15.36
2023-04-20T14:20:06.601Z,15.41
2023-04-20T14:22:37.294Z,15.49
2023-04-20T14:25:05.347Z,15.58
2023-04-20T14:27:33.601Z,15.67
2023-04-20T14:30:02.700Z,15.72
2023-04-20T14:32:32.070Z,15.77
2023-04-20T14:34:59.807Z,15.81
2023-04-20T14:37:28.210Z,15.82
2023-04-20T14:39:56.237Z,15.86
2023-04-20T14:42:24.228Z,15.87
2023-04-20T14:44:51.621Z,15.88
2023-04-20T14:47:19.623Z,15.88
2023-04-20T14:49:47.511Z,15.89
2023-04-20T14:52:14.838Z,15.88
2023-04-20T14:54:42.042Z,15.87
2023-04-20T14:57:09.680Z,15.85
2023-04-20T14:59:37.684Z,15.84
2023-04-20T15:02:06.278Z,15.82
2023-04-20T15:04:34.022Z,15.84
2023-04-20T15:07:01.557Z,15.79
2023-04-20T15:09:30.864Z,15.74
2023-04-20T15:11:59.973Z,15.72
2023-04-20T15:14:27.324Z,15.78
2023-04-20T15:16:55.477Z,15.84
2023-04-20T15:19:26.796Z,15.85
2023-04-20T15:21:54.050Z,15.86
2023-04-20T15:24:21.347Z,15.89
2023-04-20T15:26:49.349Z,15.90
2023-04-20T15:29:18.086Z,15.90
2023-04-20T15:31:47.322Z,15.88
2023-04-20T15:34:18.905Z,15.91
2023-04-20T15:36:48.937Z,15.96
2023-04-20T15:39:16.371Z,15.99
2023-04-20T15:41:44.471Z,15.98
2023-04-20T15:44:11.774Z,15.96
2023-04-20T15:46:39.404Z,15.92
2023-04-20T15:49:07.976Z,15.88
2023-04-20T15:51:35.490Z,15.82
2023-04-20T15:54:02.918Z,15.76
2023-04-20T15:56:31.680Z,15.68
2023-04-20T15:58:59.158Z,15.60
2023-04-20T16:01:26.506Z,15.53
2023-04-20T16:03:55.052Z,15.47
2023-04-20T16:06:22.658Z,15.41
2023-04-20T16:08:53.796Z,15.37
2023-04-20T16:11:22.778Z,15.35
2023-04-20T16:13:50.416Z,15.34
2023-04-20T16:16:17.937Z,15.33
2023-04-20T16:18:45.454Z,15.32
2023-04-20T16:21:12.862Z,15.31
2023-04-20T16:23:40.567Z,15.31
2023-04-20T16:26:09.124Z,15.31
2023-04-20T16:28:37.858Z,15.29
2023-04-20T16:31:06.161Z,15.27
2023-04-20T16:33:37.156Z,15.24
2023-04-20T16:36:05.064Z,15.22
2023-04-20T16:38:32.530Z,15.18
2023-04-20T16:40:59.786Z,15.14
2023-04-20T16:43:27.511Z,15.10
2023-04-20T16:45:54.901Z,15.06
2023-04-20T16:48:22.630Z,15.01
2023-04-20T16:50:50.150Z,14.97
2023-04-20T16:53:17.904Z,14.92
2023-04-20T16:55:45.431Z,14.88
2023-04-20T16:58:13.390Z,14.84
2023-04-20T17:00:40.677Z,14.80
2023-04-20T17:03:11.468Z,14.76
2023-04-20T17:05:41.708Z,14.71
2023-04-20T17:08:09.897Z,14.66
2023-04-20T17:10:38.822Z,14.61
2023-04-20T17:13:08.732Z,14.69
2023-04-20T17:15:36.543Z,15.36
2023-04-20T17:18:06.841Z,16.04
2023-04-20T17:20:35.222Z,16.44
2023-04-20T17:23:03.316Z,16.68
2023-04-20T17:25:30.934Z,16.72
2023-04-20T17:27:58.615Z,16.28
2023-04-20T17:30:26.334Z,15.84
2023-04-20T17:32:54.488Z,15.51
2023-04-20T17:35:23.319Z,15.26
2023-04-20T17:37:50.919Z,15.05
2023-04-20T17:40:19.106Z,14.86
2023-04-20T17:42:47.142Z,14.68
2023-04-20T17:45:15.920Z,14.67
2023-04-20T17:47:43.627Z,15.21
2023-04-20T17:50:12.451Z,15.66
2023-04-20T17:52:41.705Z,15.99
2023-04-20T17:55:09.746Z,16.24
2023-04-20T17:57:38.987Z,16.44
2023-04-20T18:00:09.295Z,16.45
2023-04-20T18:02:39.053Z,15.95
2023-04-20T18:05:08.210Z,15.46
2023-04-20T18:07:36.830Z,15.09
2023-04-20T18:10:05.696Z,14.79
2023-04-20T18:12:34.322Z,14.55
2023-04-20T18:15:02.679Z,14.51
2023-04-20T18:17:30.770Z,15.18
2023-04-20T18:19:59.116Z,15.91
2023-04-20T18:22:26.660Z,16.41
2023-04-20T18:24:56.612Z,16.55
2023-04-20T18:27:24.273Z,15.94
2023-04-20T18:29:55.699Z,15.28
2023-04-20T18:32:24.368Z,14.78
2023-04-20T18:34:54.161Z,14.36
2023-04-20T18:37:23.323Z,14.03
2023-04-20T18:39:51.578Z,13.96
2023-04-20T18:42:19.755Z,14.61
2023-04-20T18:44:50.484Z,15.26
2023-04-20T18:47:19.789Z,15.75
2023-04-20T18:49:48.523Z,15.95
2023-04-20T18:52:16.720Z,15.31
2023-04-20T18:54:46.229Z,14.60
2023-04-20T18:57:13.794Z,14.06
2023-04-20T18:59:43.198Z,13.64
2023-04-20T19:02:14.614Z,13.30
2023-04-20T19:04:44.113Z,13.26
2023-04-20T19:07:12.748Z,14.09
2023-04-20T19:09:43.465Z,14.87
2023-04-20T19:12:11.040Z,15.41
2023-04-20T19:14:40.276Z,15.52
2023-04-20T19:17:09.038Z,14.79
2023-04-20T19:19:37.262Z,14.03
2023-04-20T19:22:05.572Z,13.48
2023-04-20T19:24:33.330Z,13.06
2023-04-20T19:28:01.814Z,12.72
2023-04-20T19:32:00.651Z,13.00
2023-04-20T19:35:49.256Z,14.30
2023-04-20T19:43:17.336Z,14.83
2023-04-20T19:50:05.213Z,13.01
2023-04-20T19:53:04.790Z,12.42
2023-04-20T19:55:34.334Z,12.38
2023-04-20T19:58:02.393Z,13.20
2023-04-20T20:00:34.413Z,13.98
2023-04-20T20:03:02.567Z,14.50
2023-04-20T20:05:34.245Z,14.58
2023-04-20T20:08:02.390Z,13.83
2023-04-20T20:10:30.053Z,13.08
2023-04-20T20:12:57.913Z,12.54
2023-04-20T20:15:25.802Z,12.12
2023-04-20T20:18:03.073Z,11.77
2023-04-20T20:20:34.238Z,11.72
2023-04-20T20:23:02.138Z,12.50
2023-04-20T20:25:29.746Z,13.23
2023-04-20T20:27:58.003Z,13.66
2023-04-20T20:30:25.681Z,13.98
2023-04-20T20:32:54.300Z,13.99
2023-04-20T20:35:23.163Z,13.24
2023-04-20T20:37:50.560Z,12.50
2023-04-20T20:40:18.278Z,11.95
2023-04-20T20:42:46.107Z,11.52
2023-04-20T20:45:13.417Z,11.17
2023-04-20T20:47:43.900Z,11.13
2023-04-20T20:50:12.808Z,11.88
2023-04-20T20:52:40.131Z,12.61
2023-04-20T20:55:10.073Z,13.15
2023-04-20T20:57:38.681Z,13.55
2023-04-20T21:00:10.461Z,13.60
2023-04-20T21:02:38.160Z,12.80
2023-04-20T21:05:06.693Z,12.03
2023-04-20T21:07:34.115Z,11.46
2023-04-20T21:10:01.723Z,11.02
2023-04-20T21:12:29.477Z,10.68
2023-04-20T21:14:57.402Z,10.61
2023-04-20T21:17:24.728Z,11.40
2023-04-20T21:19:52.460Z,12.12
2023-04-20T21:22:23.251Z,12.60
2023-04-20T21:24:51.443Z,12.94
2023-04-20T21:27:19.146Z,13.00
2023-04-20T21:29:46.543Z,12.27
2023-04-20T21:32:14.495Z,11.51
2023-04-20T21:34:41.984Z,10.96
2023-04-20T21:37:09.781Z,10.54
2023-04-20T21:39:37.259Z,10.17
2023-04-20T21:42:04.896Z,10.15
2023-04-20T21:44:32.259Z,10.99
2023-04-20T21:47:03.756Z,11.77
2023-04-20T21:49:31.454Z,12.36
2023-04-20T21:51:59.426Z,12.74
2023-04-20T21:54:27.202Z,12.74
2023-04-20T21:56:55.124Z,11.93
2023-04-20T21:59:22.500Z,11.16
2023-04-20T22:01:51.074Z,10.58
2023-04-20T22:04:20.240Z,10.12
2023-04-20T22:06:49.603Z,9.74
2023-04-20T22:09:19.442Z,9.67
2023-04-20T22:11:48.687Z,10.44
2023-04-20T22:14:17.594Z,11.18
2023-04-20T22:16:45.267Z,11.70
2023-04-20T22:19:12.809Z,12.09
2023-04-20T22:21:40.082Z,12.17
2023-04-20T22:24:07.718Z,11.41
2023-04-20T22:26:35.077Z,10.64
2023-04-20T22:29:02.591Z,10.05
2023-04-20T22:31:30.062Z,9.59
2023-04-20T22:33:57.621Z,9.21
2023-04-20T22:36:25.479Z,9.15
2023-04-20T22:38:53.082Z,9.96
2023-04-20T22:41:20.777Z,10.74
2023-04-20T22:43:48.138Z,11.29
2023-04-20T22:46:15.730Z,11.70
2023-04-20T22:48:43.364Z,11.73
2023-04-20T22:51:11.493Z,10.95
2023-04-20T22:53:38.983Z,10.15
2023-04-20T22:56:07.769Z,9.56
2023-04-20T22:58:35.752Z,9.10
2023-04-20T23:01:05.735Z,8.73
2023-04-20T23:03:33.593Z,8.69
2023-04-20T23:06:00.894Z,9.54
2023-04-20T23:08:28.799Z,10.31
2023-04-20T23:10:56.568Z,10.84
2023-04-20T23:13:26.745Z,11.23
2023-04-20T23:15:54.376Z,11.31
2023-04-20T23:18:21.991Z,10.54
2023-04-20T23:20:49.401Z,9.76
2023-04-20T23:23:17.172Z,9.17
2023-04-20T23:25:45.119Z,8.73
2023-04-20T23:28:15.292Z,8.60
2023-04-20T23:30:44.538Z,9.39
2023-04-20T23:33:12.206Z,10.18
2023-04-20T23:35:39.503Z,10.74
2023-04-20T23:38:06.896Z,11.14
2023-04-20T23:40:38.801Z,11.44
2023-04-20T23:43:26.125Z,11.39
2023-04-20T23:45:53.691Z,10.48
2023-04-20T23:48:21.192Z,9.75
2023-04-20T23:50:50.588Z,9.20
2023-04-20T23:53:18.666Z,8.78
2023-04-20T23:55:56.720Z,8.69
2023-04-20T23:58:28.855Z,9.54
